createdAt,value
2023-01-07T00:01:27.349Z,100167.97
2023-01-07T00:03:55.593Z,100158.72
2023-01-07T00:06:36.809Z,100151.56
2023-01-07T00:09:06.229Z,100162.38
2023-01-07T00:11:36.310Z,100156.28
2023-01-07T00:14:04.876Z,100163.16
2023-01-07T00:16:33.166Z,100163.94
2023-01-07T00:19:01.414Z,100161.25
2023-01-07T00:21:29.257Z,100157.84
2023-01-07T00:23:57.644Z,100155.81
2023-01-07T00:26:26.946Z,100152.94
2023-01-07T00:28:54.391Z,100161.50
2023-01-07T00:31:23.435Z,100153.59
2023-01-07T00:33:59.643Z,100150.91
2023-01-07T00:36:29.590Z,100144.78
2023-01-07T00:39:01.423Z,100143.56
2023-01-07T00:41:28.340Z,100137.59
2023-01-07T00:43:55.074Z,100133.34
2023-01-07T00:46:22.353Z,100128.75
2023-01-07T00:48:49.117Z,100120.22
2023-01-07T00:51:17.422Z,100121.97
2023-01-07T00:53:44.279Z,100113.72
2023-01-07T00:56:12.505Z,100117.78
2023-01-07T00:58:39.195Z,100105.75
2023-01-07T01:01:06.340Z,100107.41
2023-01-07T01:03:33.605Z,100103.38
2023-01-07T01:06:05.736Z,100094.59
2023-01-07T01:08:32.340Z,100087.34
2023-01-07T01:11:09.592Z,100089.47
2023-01-07T01:13:36.623Z,100087.00
2023-01-07T01:16:08.613Z,100085.41
2023-01-07T01:18:35.414Z,100089.84
2023-01-07T01:21:06.957Z,100079.66
2023-01-07T01:23:33.961Z,100075.50
2023-01-07T01:26:09.053Z,100072.91
2023-01-07T01:28:35.987Z,100069.00
2023-01-07T01:31:03.155Z,100061.81
2023-01-07T01:33:30.043Z,100056.59
2023-01-07T01:35:56.711Z,100058.75
2023-01-07T01:38:23.220Z,100052.88
2023-01-07T01:40:49.805Z,100046.78
2023-01-07T01:43:48.995Z,100046.91
2023-01-07T01:46:35.039Z,100045.31
2023-01-07T01:49:31.343Z,100044.31
2023-01-07T01:52:10.045Z,100038.41
2023-01-07T01:54:36.911Z,100038.75
2023-01-07T01:57:05.750Z,100033.91
2023-01-07T01:59:35.805Z,100026.72
2023-01-07T02:05:13.303Z,100023.41
2023-01-07T02:07:39.811Z,100027.56
2023-01-07T02:10:17.438Z,100023.22
2023-01-07T02:12:47.103Z,100026.00
2023-01-07T02:15:52.380Z,100015.97
2023-01-07T02:18:37.718Z,100010.22
2023-01-07T02:21:52.320Z,100011.19
2023-01-07T02:24:21.533Z,100016.31
2023-01-07T02:27:20.896Z,100011.53
2023-01-07T02:30:09.889Z,100000.72
2023-01-07T02:32:42.499Z,99993.97
2023-01-07T02:35:37.410Z,99994.28
2023-01-07T02:38:16.081Z,99989.78
2023-01-07T02:40:58.143Z,99992.19
2023-01-07T02:43:33.302Z,99980.28
2023-01-07T02:46:10.410Z,99973.03
2023-01-07T02:48:38.834Z,99975.13
2023-01-07T02:51:05.660Z,99970.09
2023-01-07T02:53:33.035Z,99970.28
2023-01-07T02:56:21.372Z,99965.59
2023-01-07T02:59:06.170Z,99966.25
2023-01-07T03:01:38.327Z,99957.34
2023-01-07T03:04:32.723Z,99949.16
2023-01-07T03:07:24.634Z,99940.94
2023-01-07T03:10:12.113Z,99928.53
2023-01-07T03:12:41.960Z,99935.75
2023-01-07T03:15:16.424Z,99925.78
2023-01-07T03:18:08.889Z,99934.44
2023-01-07T03:20:38.628Z,99928.00
2023-01-07T03:23:09.761Z,99926.34
2023-01-07T03:25:39.255Z,99929.69
2023-01-07T03:28:07.679Z,99921.22
2023-01-07T03:30:35.386Z,99922.66
2023-01-07T03:33:10.031Z,99931.16
2023-01-07T03:35:40.283Z,99925.09
2023-01-07T03:38:08.461Z,99921.38
2023-01-07T03:40:35.154Z,99925.81
2023-01-07T03:43:01.772Z,99912.31
2023-01-07T03:45:29.312Z,99910.09
2023-01-07T03:47:57.222Z,99911.22
2023-01-07T03:50:24.172Z,99906.03
2023-01-07T03:52:53.508Z,99905.88
2023-01-07T03:55:20.080Z,99898.31
2023-01-07T03:57:46.752Z,99897.34
2023-01-07T04:00:14.659Z,99891.97
2023-01-07T04:02:42.927Z,99891.44
2023-01-07T04:05:10.896Z,99882.59
2023-01-07T04:07:38.038Z,99879.81
2023-01-07T04:10:06.294Z,99880.53
2023-01-07T04:12:33.236Z,99878.72
2023-01-07T04:14:59.887Z,99870.00
2023-01-07T04:17:26.646Z,99867.25
2023-01-07T04:19:53.382Z,99863.53
2023-01-07T04:22:20.201Z,99869.09
2023-01-07T04:24:46.707Z,99868.53
2023-01-07T04:27:13.376Z,99861.50
2023-01-07T04:29:39.933Z,99855.56
2023-01-07T04:32:06.439Z,99864.56
2023-01-07T04:34:33.077Z,99857.19
2023-01-07T04:36:59.700Z,99861.97
2023-01-07T04:39:26.208Z,99863.13
2023-01-07T04:41:52.790Z,99859.59
2023-01-07T04:44:19.451Z,99857.06
2023-01-07T04:46:45.983Z,99862.06
2023-01-07T04:49:13.115Z,99860.78
2023-01-07T04:51:39.766Z,99855.25
2023-01-07T04:54:06.322Z,99853.59
2023-01-07T04:56:33.010Z,99853.75
2023-01-07T04:58:59.660Z,99851.94
2023-01-07T05:01:26.295Z,99850.78
2023-01-07T05:03:52.944Z,99853.56
2023-01-07T05:06:19.523Z,99840.25
2023-01-07T05:08:46.025Z,99848.06
2023-01-07T05:11:12.744Z,99836.03
2023-01-07T05:13:39.324Z,99841.94
2023-01-07T05:16:06.217Z,99843.41
2023-01-07T05:18:32.861Z,99834.00
2023-01-07T05:20:59.592Z,99835.63
2023-01-07T05:23:26.101Z,99830.25
2023-01-07T05:25:52.722Z,99830.97
2023-01-07T05:28:19.308Z,99824.25
2023-01-07T05:30:47.356Z,99830.88
2023-01-07T05:33:14.027Z,99826.09
2023-01-07T05:35:40.676Z,99827.47
2023-01-07T05:38:07.263Z,99833.09
2023-01-07T05:40:33.908Z,99826.16
2023-01-07T05:43:00.752Z,99822.69
2023-01-07T05:45:27.261Z,99821.88
2023-01-07T05:47:53.811Z,99819.38
2023-01-07T05:50:20.460Z,99820.25
2023-01-07T05:52:47.456Z,99831.38
2023-01-07T05:55:14.166Z,99825.81
2023-01-07T05:57:40.763Z,99825.06
2023-01-07T06:00:10.346Z,99829.13
2023-01-07T06:02:37.389Z,99826.38
2023-01-07T06:05:04.745Z,99835.38
2023-01-07T06:07:31.319Z,99830.88
2023-01-07T06:09:57.986Z,99834.63
2023-01-07T06:12:24.586Z,99833.38
2023-01-07T06:14:51.103Z,99835.31
2023-01-07T06:17:17.814Z,99838.09
2023-01-07T06:19:44.411Z,99835.31
2023-01-07T06:22:10.944Z,99840.94
2023-01-07T06:24:38.346Z,99835.75
2023-01-07T06:27:04.916Z,99839.03
2023-01-07T06:29:31.452Z,99835.78
2023-01-07T06:31:58.381Z,99835.28
2023-01-07T06:34:24.959Z,99826.41
2023-01-07T06:36:51.498Z,99830.84
2023-01-07T06:39:18.089Z,99833.22
2023-01-07T06:41:44.637Z,99830.66
2023-01-07T06:44:11.247Z,99831.75
2023-01-07T06:46:37.936Z,99828.72
2023-01-07T06:49:04.742Z,99827.81
2023-01-07T06:51:31.417Z,99836.72
2023-01-07T06:53:58.573Z,99834.03
2023-01-07T06:56:25.264Z,99838.09
2023-01-07T06:58:51.808Z,99834.06
2023-01-07T07:01:18.475Z,99831.03
2023-01-07T07:03:45.108Z,99826.72
2023-01-07T07:06:11.616Z,99832.63
2023-01-07T07:08:38.215Z,99828.03
2023-01-07T07:11:04.902Z,99826.56
2023-01-07T07:13:31.429Z,99820.47
2023-01-07T07:15:58.116Z,99832.38
2023-01-07T07:18:24.807Z,99819.09
2023-01-07T07:20:51.306Z,99828.09
2023-01-07T07:23:17.991Z,99830.69
2023-01-07T07:25:44.755Z,99832.66
2023-01-07T07:28:11.274Z,99833.63
2023-01-07T07:30:45.586Z,99826.03
2023-01-07T07:33:15.111Z,99831.38
2023-01-07T07:35:42.146Z,99830.00
2023-01-07T07:38:08.659Z,99833.50
2023-01-07T07:40:35.239Z,99836.50
2023-01-07T07:43:10.549Z,99836.13
2023-01-07T07:45:39.271Z,99837.00
2023-01-07T07:48:07.478Z,99837.91
2023-01-07T07:50:34.639Z,99833.34
2023-01-07T07:53:01.420Z,99834.84
2023-01-07T07:55:28.856Z,99841.53
2023-01-07T07:57:56.768Z,99832.47
2023-01-07T08:00:23.476Z,99832.28
2023-01-07T08:02:50.327Z,99831.94
2023-01-07T08:05:16.974Z,99826.41
2023-01-07T08:07:43.627Z,99829.97
2023-01-07T08:10:10.332Z,99827.41
2023-01-07T08:12:38.523Z,99830.06
2023-01-07T08:15:06.477Z,99828.03
2023-01-07T08:17:33.155Z,99817.75
2023-01-07T08:19:59.645Z,99822.56
2023-01-07T08:22:26.247Z,99808.34
2023-01-07T08:24:53.044Z,99801.13
2023-01-07T08:27:19.633Z,99811.47
2023-01-07T08:29:46.244Z,99810.72
2023-01-07T08:32:13.304Z,99805.94
2023-01-07T08:34:39.841Z,99795.59
2023-01-07T08:37:06.524Z,99792.28
2023-01-07T08:39:33.195Z,99798.94
2023-01-07T08:41:59.756Z,99802.78
2023-01-07T08:44:26.350Z,99792.69
2023-01-07T08:46:54.294Z,99799.38
2023-01-07T08:49:21.137Z,99801.72
2023-01-07T08:51:47.781Z,99798.19
2023-01-07T08:54:14.454Z,99801.47
2023-01-07T08:56:41.015Z,99795.78
2023-01-07T08:59:07.673Z,99800.91
2023-01-07T09:01:34.501Z,99795.34
2023-01-07T09:04:01.094Z,99790.59
2023-01-07T09:06:27.745Z,99795.69
2023-01-07T09:08:54.360Z,99797.56
2023-01-07T09:11:20.940Z,99799.22
2023-01-07T09:13:47.494Z,99784.72
2023-01-07T09:16:14.269Z,99784.56
2023-01-07T09:18:40.826Z,99789.72
2023-01-07T09:21:07.522Z,99775.78
2023-01-07T09:23:34.518Z,99780.16
2023-01-07T09:26:01.383Z,99786.81
2023-01-07T09:28:28.015Z,99785.25
2023-01-07T09:30:56.660Z,99783.78
2023-01-07T09:33:23.564Z,99794.47
2023-01-07T09:35:50.166Z,99798.19
2023-01-07T09:38:16.847Z,99799.97
2023-01-07T09:40:44.775Z,99785.44
2023-01-07T09:44:00.067Z,99790.22
2023-01-07T09:46:20.900Z,99790.28
2023-01-07T09:48:54.247Z,99796.47
2023-01-07T09:51:26.854Z,99792.94
2023-01-07T09:53:56.823Z,99790.28
2023-01-07T09:56:27.020Z,99784.56
2023-01-07T09:58:55.143Z,99794.25
2023-01-07T10:01:50.865Z,99803.34
2023-01-07T10:04:37.735Z,99798.66
2023-01-07T10:07:23.226Z,99797.78
2023-01-07T10:10:27.441Z,99800.56
2023-01-07T10:13:16.590Z,99795.00
2023-01-07T10:15:46.182Z,99781.06
2023-01-07T10:18:21.627Z,99782.38
2023-01-07T10:20:56.302Z,99778.38
2023-01-07T10:23:28.872Z,99776.34
2023-01-07T10:25:57.029Z,99762.66
2023-01-07T10:28:40.223Z,99772.66
2023-01-07T10:31:16.713Z,99769.00
2023-01-07T10:33:45.980Z,99766.78
2023-01-07T10:36:23.850Z,99767.50
2023-01-07T10:39:27.713Z,99770.53
2023-01-07T10:42:30.722Z,99779.78
2023-01-07T10:45:16.144Z,99762.09
2023-01-07T10:48:14.963Z,99770.16
2023-01-07T10:50:53.503Z,99770.53
2023-01-07T10:53:27.691Z,99764.72
2023-01-07T10:56:12.940Z,99769.31
2023-01-07T10:58:42.347Z,99754.41
2023-01-07T11:01:18.562Z,99757.47
2023-01-07T11:03:50.096Z,99735.72
2023-01-07T11:06:19.974Z,99733.00
2023-01-07T11:08:46.915Z,99723.50
2023-01-07T11:11:17.016Z,99718.97
2023-01-07T11:13:58.602Z,99726.53
2023-01-07T11:16:29.246Z,99712.03
2023-01-07T11:19:10.579Z,99707.22
2023-01-07T11:21:44.710Z,99693.53
2023-01-07T11:24:32.812Z,99695.03
2023-01-07T11:27:03.234Z,99684.31
2023-01-07T11:30:05.175Z,99679.53
2023-01-07T11:32:41.069Z,99688.28
2023-01-07T11:35:29.120Z,99674.19
2023-01-07T11:37:56.850Z,99682.56
2023-01-07T11:40:32.526Z,99674.41
2023-01-07T11:43:01.940Z,99659.19
2023-01-07T11:45:33.005Z,99665.91
2023-01-07T11:48:05.341Z,99677.56
2023-01-07T11:50:42.060Z,99671.75
2023-01-07T11:53:14.723Z,99666.25
2023-01-07T11:56:07.735Z,99654.03
2023-01-07T11:58:41.172Z,99654.75
2023-01-07T12:01:07.680Z,99635.88
2023-01-07T12:03:35.600Z,99631.28
2023-01-07T12:06:33.004Z,99632.41
2023-01-07T12:09:16.616Z,99638.25
2023-01-07T12:11:45.346Z,99626.94
2023-01-07T12:14:31.549Z,99615.50
2023-01-07T12:17:20.264Z,99622.47
2023-01-07T12:20:17.705Z,99622.91
2023-01-07T12:23:02.631Z,99618.16
2023-01-07T12:25:44.370Z,99622.06
2023-01-07T12:28:19.803Z,99627.16
2023-01-07T12:31:06.602Z,99617.38
2023-01-07T12:33:50.670Z,99623.69
2023-01-07T12:36:37.395Z,99632.56
2023-01-07T12:39:09.888Z,99621.31
2023-01-07T12:41:44.053Z,99620.78
2023-01-07T12:44:10.627Z,99609.25
2023-01-07T12:46:43.018Z,99605.41
2023-01-07T12:49:24.045Z,99603.22
2023-01-07T12:52:08.331Z,99601.19
2023-01-07T12:55:03.741Z,99606.38
2023-01-07T12:57:37.034Z,99589.94
2023-01-07T13:00:15.522Z,99601.03
2023-01-07T13:03:00.489Z,99598.97
2023-01-07T13:05:46.682Z,99603.97
2023-01-07T13:08:23.749Z,99610.63
2023-01-07T13:11:16.344Z,99608.22
2023-01-07T13:13:48.731Z,99605.16
2023-01-07T13:16:15.510Z,99595.31
2023-01-07T13:18:42.146Z,99592.72
2023-01-07T13:21:14.090Z,99594.78
2023-01-07T13:24:08.847Z,99578.09
2023-01-07T13:26:53.674Z,99573.25
2023-01-07T13:29:55.249Z,99583.78
2023-01-07T13:32:37.034Z,99571.53
2023-01-07T13:35:16.455Z,99572.09
2023-01-07T13:38:07.817Z,99569.47
2023-01-07T13:40:45.743Z,99569.97
2023-01-07T13:43:12.236Z,99547.38
2023-01-07T13:45:42.519Z,99564.03
2023-01-07T13:48:22.813Z,99566.03
2023-01-07T13:51:07.929Z,99562.06
2023-01-07T13:53:39.925Z,99559.13
2023-01-07T13:56:18.835Z,99551.34
2023-01-07T13:58:50.313Z,99549.56
2023-01-07T14:01:33.771Z,99542.66
2023-01-07T14:04:03.536Z,99538.94
2023-01-07T14:06:30.019Z,99538.66
2023-01-07T14:08:56.732Z,99542.22
2023-01-07T14:11:29.537Z,99543.97
2023-01-07T14:14:15.416Z,99544.78
2023-01-07T14:16:57.179Z,99549.47
2023-01-07T14:19:34.385Z,99551.66
2023-01-07T14:22:13.313Z,99549.81
2023-01-07T14:25:01.405Z,99547.31
2023-01-07T14:27:43.254Z,99545.41
2023-01-07T14:30:21.982Z,99552.84
2023-01-07T14:33:04.013Z,99551.72
2023-01-07T14:35:36.771Z,99543.84
2023-01-07T14:38:34.265Z,99550.50
2023-01-07T14:41:03.484Z,99547.31
2023-01-07T14:43:48.241Z,99560.09
2023-01-07T14:46:24.125Z,99562.78
2023-01-07T14:49:03.360Z,99556.59
2023-01-07T14:51:45.115Z,99555.88
2023-01-07T14:54:32.764Z,99563.38
2023-01-07T14:57:07.508Z,99564.19
2023-01-07T14:59:40.354Z,99568.19
2023-01-07T15:02:31.319Z,99558.13
2023-01-07T15:05:23.401Z,99556.06
2023-01-07T15:08:15.880Z,99556.34
2023-01-07T15:11:02.843Z,99572.31
2023-01-07T15:13:49.908Z,99562.66
2023-01-07T15:16:21.489Z,99568.97
2023-01-07T15:18:49.515Z,99559.13
2023-01-07T15:21:35.131Z,99571.28
2023-01-07T15:24:14.332Z,99560.84
2023-01-07T15:26:54.309Z,99560.75
2023-01-07T15:29:23.940Z,99560.13
2023-01-07T15:32:06.578Z,99553.75
2023-01-07T15:34:33.440Z,99554.44
2023-01-07T15:37:04.846Z,99555.75
2023-01-07T15:39:40.944Z,99548.94
2023-01-07T15:42:16.163Z,99558.31
2023-01-07T15:44:43.165Z,99543.25
2023-01-07T15:47:41.259Z,99559.31
2023-01-07T15:50:28.018Z,99557.06
2023-01-07T15:52:54.587Z,99563.78
2023-01-07T15:55:27.991Z,99553.56
2023-01-07T15:58:01.582Z,99546.50
2023-01-07T16:00:28.298Z,99538.16
2023-01-07T16:02:55.844Z,99542.03
2023-01-07T16:05:24.979Z,99550.63
2023-01-07T16:07:53.113Z,99544.69
2023-01-07T16:10:34.114Z,99546.38
2023-01-07T16:13:18.316Z,99562.41
2023-01-07T16:15:45.000Z,99553.78
2023-01-07T16:18:13.389Z,99545.06
2023-01-07T16:20:48.767Z,99546.94
2023-01-07T16:23:30.576Z,99540.63
2023-01-07T16:26:04.768Z,99533.31
2023-01-07T16:29:02.909Z,99538.06
2023-01-07T16:31:30.952Z,99534.84
2023-01-07T16:33:59.747Z,99534.63
2023-01-07T16:36:34.389Z,99534.38
2023-01-07T16:39:06.545Z,99538.09
2023-01-07T16:41:34.270Z,99534.63
2023-01-07T16:44:00.988Z,99546.22
2023-01-07T16:46:36.630Z,99543.16
2023-01-07T16:49:09.149Z,99542.31
2023-01-07T16:51:37.847Z,99536.91
2023-01-07T16:54:29.517Z,99540.44
2023-01-07T16:56:58.489Z,99536.22
2023-01-07T16:59:29.399Z,99533.56
2023-01-07T17:01:57.102Z,99532.25
2023-01-07T17:04:27.984Z,99524.84
2023-01-07T17:06:54.725Z,99527.84
2023-01-07T17:09:25.135Z,99528.13
2023-01-07T17:11:52.908Z,99535.56
2023-01-07T17:14:34.711Z,99526.16
2023-01-07T17:17:16.654Z,99522.00
2023-01-07T17:20:09.710Z,99522.97
2023-01-07T17:22:41.971Z,99528.94
2023-01-07T17:25:10.162Z,99530.41
2023-01-07T17:27:59.967Z,99536.53
2023-01-07T17:30:33.313Z,99535.53
2023-01-07T17:33:00.024Z,99542.56
2023-01-07T17:35:28.141Z,99520.91
2023-01-07T17:37:55.113Z,99516.59
2023-01-07T17:40:21.841Z,99515.59
2023-01-07T17:43:09.346Z,99531.47
2023-01-07T17:45:36.099Z,99528.53
2023-01-07T17:48:02.719Z,99526.19
2023-01-07T17:50:36.170Z,99512.56
2023-01-07T17:53:03.702Z,99517.31
2023-01-07T17:55:33.847Z,99513.06
2023-01-07T17:58:00.519Z,99499.13
2023-01-07T18:00:30.788Z,99492.38
2023-01-07T18:02:58.233Z,99494.44
2023-01-07T18:05:26.390Z,99482.75
2023-01-07T18:07:53.438Z,99490.84
2023-01-07T18:10:25.971Z,99490.94
2023-01-07T18:12:52.615Z,99494.28
2023-01-07T18:15:27.257Z,99485.41
2023-01-07T18:17:54.044Z,99474.25
2023-01-07T18:20:22.211Z,99482.13
2023-01-07T18:22:49.732Z,99476.25
2023-01-07T18:25:22.313Z,99475.41
2023-01-07T18:27:52.820Z,99475.81
2023-01-07T18:30:21.563Z,99463.81
2023-01-07T18:32:49.143Z,99460.28
2023-01-07T18:35:15.810Z,99458.53
2023-01-07T18:37:42.393Z,99454.28
2023-01-07T18:40:10.043Z,99460.28
2023-01-07T18:42:36.981Z,99464.28
2023-01-07T18:45:09.019Z,99467.72
2023-01-07T18:47:35.652Z,99474.50
2023-01-07T18:50:02.972Z,99470.47
2023-01-07T18:52:31.025Z,99489.81
2023-01-07T18:54:58.011Z,99489.22
2023-01-07T18:57:24.662Z,99482.03
2023-01-07T18:59:51.143Z,99466.69
2023-01-07T19:02:20.730Z,99473.09
2023-01-07T19:04:48.572Z,99479.91
2023-01-07T19:07:19.789Z,99483.94
2023-01-07T19:09:46.863Z,99467.59
2023-01-07T19:12:14.443Z,99464.13
2023-01-07T19:14:41.580Z,99457.91
2023-01-07T19:17:08.523Z,99468.22
2023-01-07T19:19:47.293Z,99458.53
2023-01-07T19:22:16.386Z,99467.59
2023-01-07T19:24:43.685Z,99465.41
2023-01-07T19:27:10.903Z,99477.28
2023-01-07T19:29:37.754Z,99483.38
2023-01-07T19:32:04.500Z,99482.22
2023-01-07T19:34:31.087Z,99487.84
2023-01-07T19:36:57.799Z,99483.13
2023-01-07T19:39:24.628Z,99474.28
2023-01-07T19:41:51.209Z,99478.28
2023-01-07T19:44:18.261Z,99492.06
2023-01-07T19:46:44.834Z,99475.78
2023-01-07T19:49:12.970Z,99464.50
2023-01-07T19:51:42.096Z,99461.97
2023-01-07T19:54:17.515Z,99468.56
2023-01-07T19:56:44.510Z,99462.81
2023-01-07T19:59:11.353Z,99450.69
2023-01-07T20:01:39.048Z,99455.25
2023-01-07T20:04:07.863Z,99451.38
2023-01-07T20:06:38.817Z,99451.56
2023-01-07T20:09:10.535Z,99443.38
2023-01-07T20:11:38.644Z,99444.41
2023-01-07T20:14:07.142Z,99446.41
2023-01-07T20:16:35.995Z,99446.53
2023-01-07T20:19:03.024Z,99426.72
2023-01-07T20:21:29.571Z,99443.03
2023-01-07T20:23:56.217Z,99452.75
2023-01-07T20:26:32.783Z,99466.09
2023-01-07T20:29:00.483Z,99449.44
2023-01-07T20:31:28.972Z,99443.59
2023-01-07T20:33:55.952Z,99440.50
2023-01-07T20:36:26.015Z,99433.13
2023-01-07T20:38:52.882Z,99428.06
2023-01-07T20:41:22.121Z,99405.91
2023-01-07T20:43:54.073Z,99411.28
2023-01-07T20:46:21.060Z,99417.78
2023-01-07T20:48:47.758Z,99409.38
2023-01-07T20:51:15.015Z,99391.28
2023-01-07T20:53:43.066Z,99388.28
2023-01-07T20:56:12.601Z,99378.88
2023-01-07T20:58:40.582Z,99388.63
2023-01-07T21:01:10.958Z,99400.72
2023-01-07T21:03:38.812Z,99391.41
2023-01-07T21:06:08.325Z,99405.91
2023-01-07T21:08:36.513Z,99401.66
2023-01-07T21:11:03.049Z,99390.50
2023-01-07T21:13:29.715Z,99397.66
2023-01-07T21:16:02.093Z,99406.34
2023-01-07T21:18:28.990Z,99404.31
2023-01-07T21:20:56.035Z,99406.91
2023-01-07T21:23:22.761Z,99394.34
2023-01-07T21:25:49.683Z,99385.38
2023-01-07T21:28:16.383Z,99405.25
2023-01-07T21:30:43.096Z,99402.34
2023-01-07T21:33:09.669Z,99400.03
2023-01-07T21:35:40.061Z,99390.81
2023-01-07T21:38:06.715Z,99390.78
2023-01-07T21:40:33.374Z,99402.25
2023-01-07T21:43:00.005Z,99410.16
2023-01-07T21:45:26.593Z,99413.22
2023-01-07T21:47:53.817Z,99432.59
2023-01-07T21:50:20.505Z,99415.69
2023-01-07T21:52:47.024Z,99422.06
2023-01-07T21:55:13.506Z,99411.31
2023-01-07T21:57:40.221Z,99398.38
2023-01-07T22:00:07.500Z,99404.19
2023-01-07T22:02:34.087Z,99405.56
2023-01-07T22:05:00.754Z,99410.69
2023-01-07T22:07:27.371Z,99397.16
2023-01-07T22:09:54.021Z,99421.31
2023-01-07T22:12:20.716Z,99406.81
2023-01-07T22:14:47.501Z,99405.50
2023-01-07T22:17:15.599Z,99405.97
2023-01-07T22:19:42.344Z,99405.91
2023-01-07T22:22:09.027Z,99393.59
2023-01-07T22:24:35.706Z,99391.84
2023-01-07T22:27:02.352Z,99389.25
2023-01-07T22:29:32.226Z,99394.56
2023-01-07T22:31:59.058Z,99393.03
2023-01-07T22:34:25.749Z,99405.66
2023-01-07T22:37:12.027Z,99406.13
2023-01-07T22:39:46.776Z,99403.13
2023-01-07T22:42:37.372Z,99387.78
2023-01-07T22:45:15.290Z,99393.53
2023-01-07T22:47:46.463Z,99391.03
2023-01-07T22:50:14.636Z,99391.56
2023-01-07T22:52:42.813Z,99396.63
2023-01-07T22:55:11.004Z,99383.19
2023-01-07T22:57:39.005Z,99390.47
2023-01-07T23:00:10.216Z,99385.91
2023-01-07T23:02:36.809Z,99372.91
2023-01-07T23:05:03.463Z,99370.09
2023-01-07T23:07:30.068Z,99373.19
2023-01-07T23:09:56.645Z,99351.84
2023-01-07T23:12:23.152Z,99352.13
2023-01-07T23:14:49.728Z,99343.56
2023-01-07T23:17:16.387Z,99324.34
2023-01-07T23:19:42.869Z,99315.16
2023-01-07T23:22:09.444Z,99306.06
2023-01-07T23:24:36.242Z,99302.50
2023-01-07T23:27:02.746Z,99302.28
2023-01-07T23:29:29.334Z,99296.75
2023-01-07T23:31:55.999Z,99289.94
2023-01-07T23:34:22.584Z,99291.13
2023-01-07T23:36:49.215Z,99291.59
2023-01-07T23:39:16.042Z,99273.78
2023-01-07T23:41:42.613Z,99249.81
2023-01-07T23:44:09.219Z,99258.31
2023-01-07T23:46:35.889Z,99263.94
2023-01-07T23:49:02.406Z,99267.22
2023-01-07T23:51:29.055Z,99261.53
2023-01-07T23:53:55.594Z,99252.22
2023-01-07T23:56:22.584Z,99239.59
2023-01-07T23:58:50.090Z,99244.94
